createdAt,value
2023-03-21T00:02:34.936Z,13.63
2023-03-21T00:05:24.794Z,13.68
2023-03-21T00:08:15.804Z,13.66
2023-03-21T00:11:07.951Z,13.62
2023-03-21T00:13:58.592Z,13.65
2023-03-21T00:16:50.811Z,13.64
2023-03-21T00:19:41.681Z,13.60
2023-03-21T00:22:31.006Z,13.59
2023-03-21T00:25:21.814Z,13.49
2023-03-21T00:28:11.243Z,13.48
2023-03-21T00:31:01.268Z,13.48
2023-03-21T00:33:50.857Z,13.53
2023-03-21T00:36:40.368Z,13.62
2023-03-21T00:39:29.705Z,13.67
2023-03-21T00:42:20.697Z,13.69
2023-03-21T00:45:11.103Z,13.75
2023-03-21T00:48:00.710Z,13.77
2023-03-21T00:50:54.307Z,13.82
2023-03-21T00:53:44.761Z,13.89
2023-03-21T00:56:34.085Z,13.93
2023-03-21T00:59:24.966Z,13.99
2023-03-21T01:02:23.002Z,14.04
2023-03-21T01:05:33.463Z,14.04
2023-03-21T01:08:28.204Z,13.99
2023-03-21T01:11:24.804Z,14.05
2023-03-21T01:14:22.574Z,14.06
2023-03-21T01:17:14.604Z,14.10
2023-03-21T01:20:06.316Z,14.04
2023-03-21T01:22:55.629Z,14.12
2023-03-21T01:25:45.142Z,14.15
2023-03-21T01:28:35.210Z,14.07
2023-03-21T01:31:24.803Z,14.15
2023-03-21T01:34:16.273Z,14.12
2023-03-21T01:37:06.472Z,14.21
2023-03-21T01:40:05.601Z,14.26
2023-03-21T01:42:55.624Z,14.24
2023-03-21T01:46:22.428Z,14.24
2023-03-21T01:49:38.782Z,14.14
2023-03-21T01:52:39.713Z,14.20
2023-03-21T01:55:39.663Z,14.26
2023-03-21T01:58:44.116Z,14.26
2023-03-21T02:02:12.503Z,14.24
2023-03-21T02:05:15.750Z,14.27
2023-03-21T02:08:08.387Z,14.25
2023-03-21T02:10:59.646Z,14.26
2023-03-21T02:14:07.058Z,14.26
2023-03-21T02:17:20.171Z,14.23
2023-03-21T02:21:09.390Z,14.19
2023-03-21T02:24:34.884Z,14.04
2023-03-21T02:27:26.058Z,14.00
2023-03-21T02:30:52.323Z,13.92
2023-03-21T02:34:28.513Z,13.87
2023-03-21T02:37:38.322Z,13.86
2023-03-21T02:40:36.273Z,13.85
2023-03-21T02:43:35.416Z,13.81
2023-03-21T02:46:43.876Z,13.82
2023-03-21T02:49:44.964Z,13.82
2023-03-21T02:52:39.960Z,13.80
2023-03-21T02:55:36.073Z,13.78
2023-03-21T02:58:29.408Z,13.75
2023-03-21T03:01:20.930Z,13.72
2023-03-21T03:04:23.400Z,13.57
2023-03-21T03:07:32.946Z,13.63
2023-03-21T03:10:45.158Z,13.62
2023-03-21T03:13:53.122Z,13.63
2023-03-21T03:16:53.250Z,13.52
2023-03-21T03:20:07.111Z,13.49
2023-03-21T03:23:16.224Z,13.49
2023-03-21T03:26:12.782Z,13.50
2023-03-21T03:29:08.433Z,13.50
2023-03-21T03:32:06.386Z,13.51
2023-03-21T03:34:59.597Z,13.55
2023-03-21T03:37:57.791Z,13.52
2023-03-21T03:40:51.532Z,13.53
2023-03-21T03:44:05.028Z,13.56
2023-03-21T03:47:05.503Z,13.53
2023-03-21T03:50:03.988Z,13.54
2023-03-21T03:53:09.920Z,13.51
2023-03-21T03:56:09.902Z,13.53
2023-03-21T03:59:04.581Z,13.54
2023-03-21T04:02:17.505Z,13.52
2023-03-21T04:05:08.410Z,13.56
2023-03-21T04:07:58.314Z,13.57
2023-03-21T04:10:58.819Z,13.57
2023-03-21T04:13:48.627Z,13.51
2023-03-21T04:16:44.206Z,13.52
2023-03-21T04:19:35.268Z,13.51
2023-03-21T04:22:24.808Z,13.41
2023-03-21T04:25:27.451Z,13.43
2023-03-21T04:28:23.373Z,13.35
2023-03-21T04:31:27.298Z,13.22
2023-03-21T04:34:29.331Z,13.15
2023-03-21T04:37:24.623Z,13.07
2023-03-21T04:40:17.782Z,12.94
2023-03-21T04:43:07.764Z,13.04
2023-03-21T04:46:00.682Z,13.06
2023-03-21T04:48:50.530Z,13.00
2023-03-21T04:51:40.158Z,13.07
2023-03-21T04:54:35.830Z,13.08
2023-03-21T04:57:25.911Z,13.10
2023-03-21T05:00:17.316Z,13.04
2023-03-21T05:03:09.088Z,13.12
2023-03-21T05:06:01.786Z,13.28
2023-03-21T05:08:51.157Z,13.31
2023-03-21T05:11:43.407Z,13.21
2023-03-21T05:14:35.262Z,13.33
2023-03-21T05:17:25.183Z,13.31
2023-03-21T05:20:17.466Z,13.40
2023-03-21T05:23:10.879Z,13.40
2023-03-21T05:26:00.794Z,13.39
2023-03-21T05:29:15.557Z,13.32
2023-03-21T05:32:07.460Z,13.29
2023-03-21T05:34:57.280Z,13.21
2023-03-21T05:37:46.471Z,13.06
2023-03-21T05:40:36.011Z,13.05
2023-03-21T05:43:26.747Z,13.02
2023-03-21T05:46:17.534Z,13.02
2023-03-21T05:49:07.972Z,12.95
2023-03-21T05:51:57.955Z,13.03
2023-03-21T05:54:47.237Z,13.05
2023-03-21T05:57:39.399Z,12.99
2023-03-21T06:00:30.882Z,12.96
2023-03-21T06:03:44.327Z,12.92
2023-03-21T06:06:43.795Z,12.86
2023-03-21T06:09:33.763Z,12.93
2023-03-21T06:12:25.907Z,12.88
2023-03-21T06:15:26.883Z,12.80
2023-03-21T06:18:29.196Z,12.81
2023-03-21T06:21:44.140Z,12.63
2023-03-21T06:24:33.656Z,12.72
2023-03-21T06:27:23.062Z,12.65
2023-03-21T06:30:17.934Z,12.63
2023-03-21T06:33:18.470Z,12.68
2023-03-21T06:36:09.154Z,12.59
2023-03-21T06:38:59.905Z,12.51
2023-03-21T06:41:49.400Z,12.59
2023-03-21T06:44:39.316Z,12.56
2023-03-21T06:47:36.298Z,12.46
2023-03-21T06:50:28.901Z,12.39
2023-03-21T06:53:19.127Z,12.32
2023-03-21T06:56:28.571Z,12.40
2023-03-21T06:59:18.209Z,12.39
2023-03-21T07:02:14.866Z,12.50
2023-03-21T07:05:11.045Z,12.49
2023-03-21T07:08:01.331Z,12.51
2023-03-21T07:10:56.886Z,12.45
2023-03-21T07:13:48.846Z,12.49
2023-03-21T07:16:38.420Z,12.60
2023-03-21T07:19:27.901Z,12.66
2023-03-21T07:22:17.346Z,12.65
2023-03-21T07:25:08.923Z,12.73
2023-03-21T07:28:03.306Z,12.73
2023-03-21T07:30:59.671Z,12.76
2023-03-21T07:33:48.981Z,12.73
2023-03-21T07:36:38.303Z,12.77
2023-03-21T07:39:30.045Z,12.71
2023-03-21T07:42:19.553Z,12.65
2023-03-21T07:45:10.859Z,12.71
2023-03-21T07:48:02.038Z,12.69
2023-03-21T07:50:56.187Z,12.67
2023-03-21T07:53:48.573Z,12.70
2023-03-21T07:56:38.109Z,12.66
2023-03-21T07:59:27.356Z,12.70
2023-03-21T08:02:18.564Z,12.52
2023-03-21T08:05:11.662Z,12.51
2023-03-21T08:08:01.942Z,12.63
2023-03-21T08:10:51.792Z,12.63
2023-03-21T08:13:41.681Z,12.69
2023-03-21T08:16:31.249Z,12.76
2023-03-21T08:19:21.848Z,12.76
2023-03-21T08:22:12.592Z,12.82
2023-03-21T08:25:01.877Z,13.06
2023-03-21T08:27:52.490Z,13.03
2023-03-21T08:30:41.866Z,12.95
2023-03-21T08:33:31.294Z,12.94
2023-03-21T08:36:20.515Z,12.95
2023-03-21T08:39:11.207Z,12.93
2023-03-21T08:42:00.422Z,12.94
2023-03-21T08:44:49.743Z,12.91
2023-03-21T08:47:39.252Z,13.18
2023-03-21T08:50:31.770Z,13.08
2023-03-21T08:53:21.058Z,13.29
2023-03-21T08:56:12.504Z,13.40
2023-03-21T08:59:03.025Z,13.72
2023-03-21T09:01:52.376Z,14.03
2023-03-21T09:04:42.081Z,14.53
2023-03-21T09:07:34.063Z,15.19
2023-03-21T09:10:24.955Z,15.67
2023-03-21T09:13:15.570Z,15.82
2023-03-21T09:16:05.452Z,16.08
2023-03-21T09:18:56.161Z,16.30
2023-03-21T09:21:45.428Z,16.48
2023-03-21T09:24:34.949Z,16.80
2023-03-21T09:27:28.228Z,16.85
2023-03-21T09:30:25.589Z,17.21
2023-03-21T09:33:21.310Z,17.71
2023-03-21T09:36:14.579Z,17.60
2023-03-21T09:39:05.202Z,17.85
2023-03-21T09:42:08.736Z,17.88
2023-03-21T09:45:09.059Z,18.13
2023-03-21T09:47:59.934Z,18.11
2023-03-21T09:50:49.266Z,17.94
2023-03-21T09:53:42.756Z,17.85
2023-03-21T09:56:32.041Z,17.61
2023-03-21T09:59:27.633Z,17.59
2023-03-21T10:02:36.138Z,17.74
2023-03-21T10:05:30.384Z,18.05
2023-03-21T10:08:24.137Z,18.03
2023-03-21T10:11:19.139Z,18.40
2023-03-21T10:14:20.390Z,18.23
2023-03-21T10:17:26.939Z,18.27
2023-03-21T10:20:21.467Z,18.48
2023-03-21T10:23:17.930Z,18.83
2023-03-21T10:26:10.285Z,19.46
2023-03-21T10:29:04.697Z,19.62
2023-03-21T10:31:55.888Z,19.27
2023-03-21T10:34:49.186Z,19.37
2023-03-21T10:37:38.528Z,19.38
2023-03-21T10:40:29.605Z,19.16
2023-03-21T10:43:38.643Z,18.82
2023-03-21T10:46:29.257Z,18.78
2023-03-21T10:49:21.217Z,18.82
2023-03-21T10:52:23.031Z,18.73
2023-03-21T10:55:24.615Z,18.75
2023-03-21T10:58:25.260Z,19.11
2023-03-21T11:01:26.099Z,19.29
2023-03-21T11:04:19.253Z,19.87
2023-03-21T11:07:14.485Z,20.22
2023-03-21T11:10:19.999Z,19.97
2023-03-21T11:13:27.139Z,19.16
2023-03-21T11:16:26.240Z,18.18
2023-03-21T11:19:19.049Z,17.70
2023-03-21T11:22:09.736Z,17.48
2023-03-21T11:25:02.680Z,17.43
2023-03-21T11:27:54.953Z,17.66
2023-03-21T11:30:56.005Z,17.75
2023-03-21T11:33:54.005Z,18.11
2023-03-21T11:36:43.207Z,18.22
2023-03-21T11:39:39.799Z,18.21
2023-03-21T11:42:32.879Z,18.39
2023-03-21T11:45:25.268Z,18.77
2023-03-21T11:48:16.660Z,18.62
2023-03-21T11:51:20.096Z,18.47
2023-03-21T11:54:16.009Z,17.85
2023-03-21T11:57:15.234Z,18.09
2023-03-21T12:00:14.692Z,18.02
2023-03-21T12:03:48.346Z,18.37
2023-03-21T12:06:42.896Z,18.20
2023-03-21T12:09:41.725Z,18.23
2023-03-21T12:12:43.436Z,17.84
2023-03-21T12:15:41.098Z,18.08
2023-03-21T12:19:13.729Z,17.76
2023-03-21T12:22:11.456Z,17.34
2023-03-21T12:25:10.601Z,17.43
2023-03-21T12:28:19.104Z,17.15
2023-03-21T12:31:26.752Z,16.93
2023-03-21T12:34:41.172Z,16.66
2023-03-21T12:37:39.546Z,16.59
2023-03-21T12:40:48.078Z,16.29
2023-03-21T12:43:48.888Z,16.17
2023-03-21T12:46:46.738Z,16.03
2023-03-21T12:49:42.886Z,15.99
2023-03-21T12:52:37.109Z,16.16
2023-03-21T12:55:30.854Z,16.46
2023-03-21T12:58:24.560Z,16.86
2023-03-21T13:01:16.829Z,16.59
2023-03-21T13:04:45.588Z,16.63
2023-03-21T13:07:42.841Z,16.34
2023-03-21T13:10:33.233Z,16.45
2023-03-21T13:13:32.067Z,16.51
2023-03-21T13:16:27.213Z,16.44
2023-03-21T13:19:25.901Z,16.11
2023-03-21T13:22:27.403Z,16.66
2023-03-21T13:25:23.021Z,16.76
2023-03-21T13:28:22.276Z,16.69
2023-03-21T13:31:21.191Z,16.86
2023-03-21T13:34:11.681Z,17.16
2023-03-21T13:37:02.321Z,17.27
2023-03-21T13:39:53.165Z,17.36
2023-03-21T13:42:46.893Z,17.31
2023-03-21T13:45:52.449Z,17.40
2023-03-21T13:49:00.695Z,17.61
2023-03-21T13:51:54.511Z,17.39
2023-03-21T13:54:55.141Z,17.55
2023-03-21T13:57:48.611Z,17.54
2023-03-21T14:00:41.153Z,17.47
2023-03-21T14:03:34.242Z,17.69
2023-03-21T14:06:24.751Z,17.62
2023-03-21T14:09:27.238Z,17.58
2023-03-21T14:12:21.314Z,17.46
2023-03-21T14:15:20.865Z,17.30
2023-03-21T14:18:27.915Z,17.31
2023-03-21T14:21:27.281Z,17.05
2023-03-21T14:24:18.377Z,16.86
2023-03-21T14:27:08.353Z,16.56
2023-03-21T14:30:00.433Z,16.47
2023-03-21T14:32:49.971Z,16.36
2023-03-21T14:35:42.239Z,16.40
2023-03-21T14:38:37.065Z,16.12
2023-03-21T14:41:29.438Z,15.93
2023-03-21T14:44:25.583Z,15.89
2023-03-21T14:47:22.841Z,15.73
2023-03-21T14:50:13.410Z,15.58
2023-03-21T14:53:02.767Z,15.47
2023-03-21T14:55:58.140Z,15.36
2023-03-21T14:58:48.511Z,15.27
2023-03-21T15:01:37.836Z,15.06
2023-03-21T15:04:28.769Z,15.02
2023-03-21T15:07:28.991Z,15.10
2023-03-21T15:10:19.219Z,15.11
2023-03-21T15:13:18.373Z,15.16
2023-03-21T15:16:09.097Z,15.22
2023-03-21T15:18:59.291Z,15.15
2023-03-21T15:21:55.213Z,14.96
2023-03-21T15:24:49.286Z,14.97
2023-03-21T15:27:43.385Z,14.73
2023-03-21T15:30:35.631Z,14.69
2023-03-21T15:33:26.723Z,14.49
2023-03-21T15:36:23.062Z,14.25
2023-03-21T15:39:17.939Z,14.33
2023-03-21T15:42:26.102Z,14.03
2023-03-21T15:45:22.157Z,14.10
2023-03-21T15:48:15.983Z,14.02
2023-03-21T15:51:08.018Z,13.94
2023-03-21T15:53:57.340Z,13.97
2023-03-21T15:56:51.774Z,14.07
2023-03-21T15:59:43.680Z,13.85
2023-03-21T16:02:33.031Z,13.99
2023-03-21T16:05:27.660Z,13.84
2023-03-21T16:08:23.073Z,13.83
2023-03-21T16:11:20.137Z,13.77
2023-03-21T16:14:10.983Z,13.73
2023-03-21T16:17:00.670Z,13.76
2023-03-21T16:19:50.193Z,13.85
2023-03-21T16:22:39.541Z,13.83
2023-03-21T16:25:30.447Z,13.87
2023-03-21T16:28:19.718Z,13.84
2023-03-21T16:31:15.600Z,13.84
2023-03-21T16:34:05.919Z,13.83
2023-03-21T16:36:55.184Z,13.79
2023-03-21T16:39:44.751Z,13.76
2023-03-21T16:42:34.047Z,13.72
2023-03-21T16:45:24.232Z,13.71
2023-03-21T16:48:16.896Z,13.78
2023-03-21T16:51:06.626Z,13.71
2023-03-21T16:53:56.272Z,13.77
2023-03-21T16:56:50.749Z,13.75
2023-03-21T16:59:40.890Z,13.84
2023-03-21T17:02:30.163Z,13.86
2023-03-21T17:05:21.647Z,13.87
2023-03-21T17:08:18.129Z,13.78
2023-03-21T17:11:10.614Z,13.69
2023-03-21T17:13:59.943Z,13.93
2023-03-21T17:16:50.158Z,13.82
2023-03-21T17:19:39.644Z,13.83
2023-03-21T17:22:30.424Z,13.91
2023-03-21T17:25:20.825Z,13.88
2023-03-21T17:28:10.262Z,13.88
2023-03-21T17:30:59.619Z,13.95
2023-03-21T17:33:49.216Z,13.97
2023-03-21T17:36:41.005Z,13.84
2023-03-21T17:39:32.469Z,13.84
2023-03-21T17:42:22.415Z,13.74
2023-03-21T17:45:12.477Z,13.72
2023-03-21T17:48:01.713Z,13.65
2023-03-21T17:50:51.279Z,13.69
2023-03-21T17:53:40.460Z,13.75
2023-03-21T17:56:34.558Z,13.67
2023-03-21T17:59:23.787Z,13.63
2023-03-21T18:02:13.130Z,13.69
2023-03-21T18:05:02.443Z,13.61
2023-03-21T18:08:11.354Z,13.55
2023-03-21T18:11:01.272Z,13.51
2023-03-21T18:14:01.363Z,13.40
2023-03-21T18:16:55.886Z,13.00
2023-03-21T18:19:46.627Z,13.44
2023-03-21T18:22:35.937Z,13.39
2023-03-21T18:25:25.276Z,13.30
2023-03-21T18:28:19.516Z,13.35
2023-03-21T18:31:19.873Z,13.12
2023-03-21T18:34:09.693Z,13.21
2023-03-21T18:36:58.957Z,13.27
2023-03-21T18:39:48.522Z,13.28
2023-03-21T18:42:38.175Z,13.22
2023-03-21T18:45:27.825Z,13.32
2023-03-21T18:48:18.619Z,13.31
2023-03-21T18:51:09.664Z,13.25
2023-03-21T18:54:00.870Z,13.18
2023-03-21T18:57:34.559Z,13.25
2023-03-21T19:00:01.548Z,13.24
2023-03-21T19:03:04.037Z,13.23
2023-03-21T19:06:01.576Z,13.22
2023-03-21T19:08:50.814Z,13.33
2023-03-21T19:11:42.338Z,13.31
2023-03-21T19:14:31.641Z,13.32
2023-03-21T19:20:30.856Z,13.31
2023-03-21T19:23:22.087Z,13.36
2023-03-21T19:26:11.678Z,13.34
2023-03-21T19:29:01.002Z,13.33
2023-03-21T19:31:51.283Z,13.41
2023-03-21T19:34:40.865Z,13.37
2023-03-21T19:37:30.673Z,13.33
2023-03-21T19:40:21.636Z,13.37
2023-03-21T19:43:31.885Z,13.34
2023-03-21T19:46:22.736Z,13.31
2023-03-21T19:49:11.909Z,13.15
2023-03-21T19:52:01.153Z,13.18
2023-03-21T19:54:50.337Z,13.30
2023-03-21T19:57:40.869Z,13.37
2023-03-21T20:00:30.251Z,13.29
2023-03-21T20:03:21.199Z,13.30
2023-03-21T20:06:12.979Z,13.29
2023-03-21T20:12:11.506Z,13.42
2023-03-21T20:15:16.394Z,13.25
2023-03-21T20:18:07.461Z,13.44
2023-03-21T20:20:57.324Z,13.34
2023-03-21T20:23:49.421Z,13.41
2023-03-21T20:26:39.459Z,13.51
2023-03-21T20:30:07.460Z,13.49
2023-03-21T20:32:39.976Z,13.41
2023-03-21T20:36:17.828Z,13.47
2023-03-21T20:38:39.482Z,13.42
2023-03-21T20:41:29.202Z,13.39
2023-03-21T20:47:28.414Z,13.42
2023-03-21T20:50:22.127Z,13.40
2023-03-21T20:53:11.836Z,13.49
2023-03-21T20:56:02.671Z,13.45
2023-03-21T20:59:04.884Z,13.48
2023-03-21T21:02:01.231Z,13.51
2023-03-21T21:05:17.714Z,13.59
2023-03-21T21:08:03.620Z,13.52
2023-03-21T21:11:32.660Z,13.55
2023-03-21T21:14:05.222Z,13.66
2023-03-21T21:16:54.740Z,13.59
2023-03-21T21:19:44.448Z,13.60
2023-03-21T21:22:33.689Z,13.57
2023-03-21T21:25:25.726Z,13.60
2023-03-21T21:28:15.045Z,13.63
2023-03-21T21:31:12.530Z,13.56
2023-03-21T21:34:03.330Z,13.64
2023-03-21T21:36:52.561Z,13.61
2023-03-21T21:39:42.114Z,13.70
2023-03-21T21:42:33.097Z,13.61
2023-03-21T21:45:22.493Z,13.62
2023-03-21T21:48:12.205Z,13.53
2023-03-21T21:51:03.374Z,13.65
2023-03-21T21:53:52.971Z,13.61
2023-03-21T21:56:42.347Z,13.53
2023-03-21T21:59:34.013Z,13.60
2023-03-21T22:02:25.571Z,13.61
2023-03-21T22:05:14.866Z,13.52
2023-03-21T22:08:04.173Z,13.53
2023-03-21T22:10:53.540Z,13.62
2023-03-21T22:13:43.667Z,13.44
2023-03-21T22:16:34.415Z,13.44
2023-03-21T22:19:27.826Z,13.62
2023-03-21T22:22:17.002Z,13.46
2023-03-21T22:25:10.057Z,13.42
2023-03-21T22:28:04.102Z,13.50
2023-03-21T22:30:54.502Z,13.44
2023-03-21T22:33:45.673Z,13.53
2023-03-21T22:36:34.913Z,13.49
2023-03-21T22:39:26.345Z,13.51
2023-03-21T22:42:15.796Z,13.55
2023-03-21T22:45:07.628Z,13.57
2023-03-21T22:47:57.090Z,13.48
2023-03-21T22:50:50.970Z,13.56
2023-03-21T22:53:41.356Z,13.40
2023-03-21T22:56:30.684Z,13.44
2023-03-21T22:59:20.446Z,13.42
2023-03-21T23:02:10.667Z,13.25
2023-03-21T23:04:59.901Z,13.36
2023-03-21T23:07:50.655Z,13.40
2023-03-21T23:10:41.441Z,13.40
2023-03-21T23:13:31.596Z,13.43
2023-03-21T23:16:31.805Z,13.43
2023-03-21T23:19:28.286Z,13.54
2023-03-21T23:22:19.937Z,13.52
2023-03-21T23:25:12.018Z,13.51
2023-03-21T23:28:07.058Z,13.58
2023-03-21T23:30:56.335Z,13.55
2023-03-21T23:33:46.668Z,13.48
2023-03-21T23:36:36.725Z,13.56
2023-03-21T23:39:26.587Z,13.49
2023-03-21T23:42:19.927Z,13.42
2023-03-21T23:45:10.190Z,13.44
2023-03-21T23:48:01.256Z,13.39
2023-03-21T23:50:50.471Z,13.47
2023-03-21T23:53:40.263Z,13.39
2023-03-21T23:56:32.390Z,13.39
2023-03-21T23:59:27.754Z,13.41
